Terminal Aerodrome Forecast
Issued by NWS

Home | Current Version | Previous Version | Text Only | Print | Product List | Glossary On
Versions: 1 2 3 4 5 6 7 8 9 10 11 12 13 14 15 16 17 18
000
FTUS46 KMTR 081644 AAB
TAFOAK
TAF AMD
KOAK 081644Z 0817/0918 15009KT P6SM SKC
     FM081900 13007KT P6SM SKC
     FM082100 VRB05KT P6SM SKC
     FM090600 09004KT P6SM SKC=

USA.gov is the U.S. government's official web portal to all federal, state and local government web resources and services.